createdAt,value
2022-10-19T00:03:23.229Z,13.20
2022-10-19T00:08:26.405Z,13.10
2022-10-19T00:13:29.358Z,13.10
2022-10-19T00:18:33.670Z,13.00
2022-10-19T00:23:36.878Z,12.90
2022-10-19T00:28:39.921Z,12.90
2022-10-19T00:33:47.571Z,12.70
2022-10-19T00:38:51.004Z,12.60
2022-10-19T00:44:00.206Z,12.20
2022-10-19T00:49:10.661Z,12.20
2022-10-19T00:54:14.990Z,12.20
2022-10-19T00:59:21.658Z,12.20
2022-10-19T01:04:28.022Z,12.50
2022-10-19T01:09:31.209Z,12.50
2022-10-19T01:14:44.328Z,12.40
2022-10-19T01:20:24.171Z,12.40
2022-10-19T01:25:40.700Z,12.40
2022-10-19T01:30:53.923Z,12.30
2022-10-19T01:36:07.317Z,12.30
2022-10-19T01:41:17.835Z,12.30
2022-10-19T01:46:27.348Z,12.30
2022-10-19T01:51:33.738Z,12.20
2022-10-19T01:56:38.779Z,12.20
2022-10-19T02:01:46.078Z,12.10
2022-10-19T02:06:49.354Z,12.00
2022-10-19T02:11:57.257Z,11.90
2022-10-19T02:17:06.362Z,12.00
2022-10-19T02:22:09.250Z,12.00
2022-10-19T02:27:12.504Z,12.00
2022-10-19T02:32:16.884Z,12.00
2022-10-19T02:37:22.138Z,12.10
2022-10-19T02:42:31.406Z,12.10
2022-10-19T02:47:38.517Z,11.90
2022-10-19T02:52:42.140Z,11.90
2022-10-19T02:57:45.327Z,11.80
2022-10-19T03:02:49.646Z,11.70
2022-10-19T03:07:52.593Z,11.70
2022-10-19T03:12:57.999Z,11.70
2022-10-19T03:18:02.300Z,11.50
2022-10-19T03:23:05.239Z,11.50
2022-10-19T03:28:08.178Z,11.50
2022-10-19T03:33:12.523Z,11.60
2022-10-19T03:38:15.627Z,11.70
2022-10-19T03:43:18.708Z,11.90
2022-10-19T03:48:22.986Z,12.00
2022-10-19T03:53:26.326Z,11.80
2022-10-19T03:58:29.301Z,11.70
2022-10-19T04:03:33.597Z,11.50
2022-10-19T04:08:37.048Z,11.70
2022-10-19T04:13:40.014Z,11.60
2022-10-19T04:18:44.431Z,11.60
2022-10-19T04:23:47.399Z,11.70
2022-10-19T04:28:50.512Z,11.60
2022-10-19T04:33:55.242Z,11.70
2022-10-19T04:38:58.271Z,11.70
2022-10-19T04:44:02.900Z,11.40
2022-10-19T04:49:07.742Z,11.30
2022-10-19T04:54:10.676Z,11.20
2022-10-19T04:59:13.615Z,11.30
2022-10-19T05:04:19.669Z,11.30
2022-10-19T05:09:22.626Z,11.00
2022-10-19T05:14:25.760Z,11.10
2022-10-19T05:19:30.049Z,11.10
2022-10-19T05:24:33.230Z,11.10
2022-10-19T05:29:36.185Z,10.80
2022-10-19T05:34:40.641Z,10.90
2022-10-19T05:39:43.629Z,10.90
2022-10-19T05:44:46.579Z,10.80
2022-10-19T05:49:50.878Z,10.70
2022-10-19T05:54:54.072Z,10.70
2022-10-19T05:59:58.412Z,10.70
2022-10-19T06:05:02.831Z,10.80
2022-10-19T06:10:06.563Z,10.60
2022-10-19T06:15:10.214Z,10.70
2022-10-19T06:20:14.798Z,10.70
2022-10-19T06:25:20.236Z,10.70
2022-10-19T06:30:23.563Z,10.60
2022-10-19T06:35:28.092Z,10.70
2022-10-19T06:40:31.049Z,10.90
2022-10-19T06:45:35.981Z,10.80
2022-10-19T06:50:40.459Z,10.90
2022-10-19T06:55:43.380Z,11.10
2022-10-19T07:00:46.400Z,11.10
2022-10-19T07:05:55.753Z,11.20
2022-10-19T07:11:00.351Z,11.30
2022-10-19T07:16:06.779Z,11.40
2022-10-19T07:21:12.518Z,11.40
2022-10-19T07:26:17.486Z,11.50
2022-10-19T07:31:24.870Z,11.50
2022-10-19T07:36:30.475Z,11.40
2022-10-19T07:41:34.688Z,11.50
2022-10-19T07:46:38.631Z,11.70
2022-10-19T07:51:43.387Z,11.70
2022-10-19T07:56:46.332Z,11.60
2022-10-19T08:01:50.230Z,11.90
2022-10-19T08:06:54.557Z,11.90
2022-10-19T08:11:58.112Z,11.90
2022-10-19T08:17:01.648Z,12.10
2022-10-19T08:22:05.935Z,11.90
2022-10-19T08:27:09.578Z,12.00
2022-10-19T08:32:12.595Z,12.50
2022-10-19T08:37:26.391Z,12.30
2022-10-19T08:42:54.570Z,12.50
2022-10-19T08:48:04.326Z,13.00
2022-10-19T08:53:15.558Z,13.10
2022-10-19T08:58:31.941Z,13.50
2022-10-19T09:03:54.905Z,13.30
2022-10-19T09:09:01.060Z,13.60
2022-10-19T09:14:07.639Z,14.10
2022-10-19T09:19:16.474Z,13.70
2022-10-19T09:24:30.555Z,14.10
2022-10-19T09:29:40.044Z,13.90
2022-10-19T09:34:45.594Z,13.50
2022-10-19T09:39:54.791Z,13.40
2022-10-19T09:45:00.744Z,13.30
2022-10-19T09:50:18.649Z,13.50
2022-10-19T09:55:28.534Z,13.90
2022-10-19T10:00:37.911Z,14.60
2022-10-19T10:05:42.354Z,14.40
2022-10-19T10:10:49.313Z,14.00
2022-10-19T10:15:57.646Z,14.60
2022-10-19T10:21:07.048Z,14.50
2022-10-19T10:26:20.500Z,13.80
2022-10-19T10:31:27.453Z,14.40
2022-10-19T10:36:31.477Z,14.50
2022-10-19T10:41:41.421Z,14.40
2022-10-19T10:46:51.657Z,13.90
2022-10-19T10:51:58.514Z,14.80
2022-10-19T10:57:14.247Z,14.80
2022-10-19T11:02:28.513Z,15.80
2022-10-19T11:07:35.625Z,16.20
2022-10-19T11:12:46.298Z,16.00
2022-10-19T11:18:16.676Z,16.40
2022-10-19T11:23:27.752Z,15.80
2022-10-19T11:28:48.255Z,15.60
2022-10-19T11:33:57.871Z,16.10
2022-10-19T11:39:17.140Z,15.70
2022-10-19T11:44:34.466Z,16.50
2022-10-19T11:49:51.493Z,17.10
2022-10-19T11:55:03.525Z,17.00
2022-10-19T12:00:15.387Z,16.60
2022-10-19T12:05:35.466Z,16.10
2022-10-19T12:10:41.215Z,16.50
2022-10-19T12:15:48.518Z,17.40
2022-10-19T12:20:55.305Z,18.40
2022-10-19T12:26:00.237Z,18.50
2022-10-19T12:31:06.772Z,19.20
2022-10-19T12:36:23.266Z,18.00
2022-10-19T12:41:32.390Z,18.60
2022-10-19T12:46:42.477Z,18.90
2022-10-19T12:51:47.031Z,19.00
2022-10-19T12:56:53.477Z,18.80
2022-10-19T13:01:58.872Z,19.30
2022-10-19T13:07:03.827Z,19.00
2022-10-19T13:12:44.099Z,19.00
2022-10-19T13:17:50.982Z,18.80
2022-10-19T13:23:32.533Z,18.00
2022-10-19T13:28:40.243Z,19.10
2022-10-19T13:33:50.870Z,19.00
2022-10-19T13:39:12.662Z,18.90
2022-10-19T13:44:25.050Z,19.00
2022-10-19T13:49:53.083Z,19.50
2022-10-19T13:55:25.011Z,19.40
2022-10-19T14:00:36.282Z,19.70
2022-10-19T14:05:55.534Z,19.20
2022-10-19T14:11:03.417Z,19.40
2022-10-19T14:16:10.410Z,19.50
2022-10-19T14:21:13.407Z,18.70
2022-10-19T14:26:24.066Z,18.70
2022-10-19T14:31:34.859Z,18.60
2022-10-19T14:36:40.734Z,19.00
2022-10-19T14:41:44.083Z,18.80
2022-10-19T14:46:49.977Z,18.30
2022-10-19T14:51:57.403Z,18.20
2022-10-19T14:57:03.262Z,18.20
2022-10-19T15:02:18.172Z,18.40
2022-10-19T15:07:25.381Z,18.40
2022-10-19T15:12:32.507Z,18.40
2022-10-19T15:17:47.716Z,17.80
2022-10-19T15:22:50.915Z,17.60
2022-10-19T15:27:54.306Z,17.30
2022-10-19T15:33:14.031Z,17.20
2022-10-19T15:38:22.702Z,17.30
2022-10-19T15:43:37.687Z,17.50
2022-10-19T15:48:52.282Z,17.00
2022-10-19T15:53:59.774Z,17.10
2022-10-19T15:59:05.330Z,16.70
2022-10-19T16:04:10.394Z,16.10
2022-10-19T16:09:20.593Z,16.00
2022-10-19T16:14:23.608Z,15.40
2022-10-19T16:19:27.979Z,15.40
2022-10-19T16:24:30.927Z,15.10
2022-10-19T16:29:34.001Z,14.90
2022-10-19T16:34:38.286Z,14.70
2022-10-19T16:39:41.319Z,14.50
2022-10-19T16:44:45.135Z,14.10
2022-10-19T16:49:49.439Z,13.50
2022-10-19T16:54:52.424Z,13.50
2022-10-19T16:59:55.592Z,13.50
2022-10-19T17:04:59.889Z,13.50
2022-10-19T17:10:02.970Z,13.30
2022-10-19T17:15:37.165Z,13.30
2022-10-19T17:20:32.889Z,13.10
2022-10-19T17:25:35.841Z,13.00
2022-10-19T17:30:42.165Z,12.80
2022-10-19T17:35:46.821Z,12.90
2022-10-19T17:40:50.031Z,12.70
2022-10-19T17:45:59.158Z,12.60
2022-10-19T17:51:05.887Z,12.50
2022-10-19T17:56:09.953Z,12.10
2022-10-19T18:01:13.668Z,11.90
2022-10-19T18:06:20.666Z,11.70
2022-10-19T18:11:25.679Z,11.80
2022-10-19T18:16:30.594Z,11.60
2022-10-19T18:21:38.776Z,11.40
2022-10-19T18:26:41.771Z,11.50
2022-10-19T18:31:44.843Z,11.40
2022-10-19T18:36:50.187Z,11.30
2022-10-19T18:41:54.574Z,11.00
2022-10-19T18:46:58.157Z,11.00
2022-10-19T18:52:02.450Z,11.10
2022-10-19T18:57:05.417Z,11.10
2022-10-19T19:02:13.737Z,10.80
2022-10-19T19:07:27.010Z,10.90
2022-10-19T19:12:31.116Z,11.00
2022-10-19T19:17:34.061Z,10.90
2022-10-19T19:22:38.507Z,10.80
2022-10-19T19:27:41.623Z,10.70
2022-10-19T19:32:44.791Z,10.60
2022-10-19T19:37:49.068Z,10.40
2022-10-19T19:42:52.015Z,10.30
2022-10-19T19:47:54.960Z,10.10
2022-10-19T19:52:59.386Z,10.10
2022-10-19T19:58:02.562Z,10.10
2022-10-19T20:03:05.660Z,10.20
2022-10-19T20:08:10.291Z,10.10
2022-10-19T20:13:13.327Z,10.00
2022-10-19T20:18:16.269Z,10.00
2022-10-19T20:23:20.385Z,9.80
2022-10-19T20:28:23.389Z,9.80
2022-10-19T20:33:26.353Z,9.60
2022-10-19T20:38:30.642Z,9.60
2022-10-19T20:43:34.205Z,9.50
2022-10-19T20:48:37.164Z,9.30
2022-10-19T20:53:41.343Z,9.40
2022-10-19T20:58:45.175Z,9.00
2022-10-19T21:03:50.854Z,9.00
2022-10-19T21:08:55.379Z,8.60
2022-10-19T21:13:59.757Z,8.70
2022-10-19T21:19:03.818Z,8.70
2022-10-19T21:24:11.616Z,8.60
2022-10-19T21:29:16.530Z,8.50
2022-10-19T21:34:21.114Z,8.40
2022-10-19T21:39:25.841Z,8.40
2022-10-19T21:44:28.770Z,8.50
2022-10-19T21:49:31.698Z,8.30
2022-10-19T21:54:36.027Z,8.30
2022-10-19T21:59:39.223Z,8.30
2022-10-19T22:04:42.181Z,8.10
2022-10-19T22:09:46.631Z,8.10
2022-10-19T22:14:49.608Z,8.10
2022-10-19T22:19:52.582Z,8.10
2022-10-19T22:24:56.887Z,8.00
2022-10-19T22:29:59.839Z,8.00
2022-10-19T22:35:02.808Z,7.80
2022-10-19T22:40:08.289Z,7.80
2022-10-19T22:45:11.187Z,7.70
2022-10-19T22:50:14.089Z,7.70
2022-10-19T22:55:18.507Z,7.80
2022-10-19T23:00:21.454Z,7.60
2022-10-19T23:05:24.771Z,7.60
2022-10-19T23:10:29.064Z,7.50
2022-10-19T23:15:31.959Z,7.50
2022-10-19T23:20:34.887Z,7.50
2022-10-19T23:25:39.139Z,7.50
2022-10-19T23:30:42.017Z,7.40
2022-10-19T23:35:44.925Z,7.40
2022-10-19T23:40:49.359Z,7.30
2022-10-19T23:45:52.351Z,7.20
2022-10-19T23:51:00.197Z,7.20
2022-10-19T23:56:07.337Z,7.30
